Time;durP1;ratioP1;P1;durP2;ratioP2;P2;SDS_P1;SDS_P2;PMS_P1;PMS_P2;Temp;Humidity;BMP_temperature;BMP_pressure;BME280_temperature;BME280_humidity;BME280_pressure;Samples;Min_cycle;Max_cycle;Signal;HPM_P1;HPM_P2
2022/06/22 00:01:48;;;;;;;5.85;3.50;;;17.30;96.90;;;;;;5069108;28;20023;-35
2022/06/22 00:04:22;;;;;;;4.70;3.05;;;17.30;97.00;;;;;;5067958;28;20039;-35
2022/06/22 00:07:22;;;;;;;3.67;2.97;;;17.30;97.10;;;;;;5069262;28;20019;-36
2022/06/22 00:09:58;;;;;;;5.45;3.08;;;17.30;97.20;;;;;;5068322;28;20029;-36
2022/06/22 00:12:27;;;;;;;4.82;3.65;;;17.30;97.30;;;;;;5067122;28;20064;-35
2022/06/22 00:14:55;;;;;;;4.63;3.40;;;17.30;97.40;;;;;;5069545;28;20025;-35
2022/06/22 00:17:30;;;;;;;5.03;3.55;;;17.20;97.50;;;;;;5068404;28;20020;-35
2022/06/22 00:20:04;;;;;;;5.30;3.17;;;17.20;97.60;;;;;;5068452;28;20463;-34
2022/06/22 00:22:29;;;;;;;4.85;3.38;;;17.20;97.70;;;;;;5058518;28;20031;-35
2022/06/22 00:25:09;;;;;;;5.22;3.65;;;17.20;97.80;;;;;;5068309;28;20025;-34
2022/06/22 00:27:36;;;;;;;4.65;3.20;;;17.20;97.90;;;;;;5057416;28;20027;-34
2022/06/22 00:30:24;;;;;;;6.70;3.50;;;17.10;97.90;;;;;;5068495;28;20107;-36
2022/06/22 00:32:58;;;;;;;5.43;3.47;;;17.10;98.00;;;;;;5056690;28;20081;-35
2022/06/22 00:35:52;;;;;;;6.25;3.70;;;17.10;98.10;;;;;;5068519;28;20543;-34
2022/06/22 00:38:27;;;;;;;6.00;3.55;;;17.10;98.30;;;;;;5061226;28;20025;-35
2022/06/22 00:40:57;;;;;;;5.93;3.45;;;17.10;98.30;;;;;;5068078;28;20032;-36
2022/06/22 00:43:28;;;;;;;4.78;3.42;;;17.00;98.30;;;;;;5067916;28;20066;-35
2022/06/22 00:45:55;;;;;;;6.45;3.92;;;17.00;98.40;;;;;;5068514;28;20037;-35
2022/06/22 00:48:33;;;;;;;7.07;3.92;;;17.00;98.50;;;;;;5066840;28;20547;-35
2022/06/22 00:51:11;;;;;;;5.07;3.75;;;16.90;98.60;;;;;;5068020;28;20025;-35
2022/06/22 00:53:51;;;;;;;4.45;3.22;;;16.90;98.70;;;;;;5057442;28;20029;-35
2022/06/22 00:56:38;;;;;;;4.07;3.42;;;16.80;98.80;;;;;;5067610;28;20104;-35
2022/06/22 00:59:06;;;;;;;4.32;3.53;;;16.80;98.80;;;;;;5066596;28;20063;-35
2022/06/22 01:01:41;;;;;;;5.38;3.40;;;16.70;98.90;;;;;;5065075;28;20021;-35
2022/06/22 01:04:42;;;;;;;4.88;3.08;;;16.70;98.90;;;;;;5066811;28;20040;-36
2022/06/22 01:07:17;;;;;;;5.35;3.38;;;16.70;99.00;;;;;;5053270;28;20029;-35
2022/06/22 01:09:57;;;;;;;4.55;2.72;;;16.60;99.00;;;;;;5066859;28;20589;-34
2022/06/22 01:12:30;;;;;;;6.05;4.50;;;16.60;99.10;;;;;;5066201;28;20468;-35
2022/06/22 01:15:21;;;;;;;8.27;3.95;;;16.50;99.10;;;;;;5067217;28;20032;-35
2022/06/22 01:18:11;;;;;;;5.82;4.32;;;16.50;99.20;;;;;;5067036;28;20029;-35
2022/06/22 01:20:55;;;;;;;9.15;4.10;;;16.50;99.30;;;;;;5066756;28;20064;-35
2022/06/22 01:23:48;;;;;;;5.63;4.35;;;16.50;99.30;;;;;;5066789;28;20067;-34
2022/06/22 01:26:28;;;;;;;;;;;16.50;99.40;;;;;;5047266;28;20044;-35
2022/06/22 01:28:58;;;;;;;5.28;3.78;;;16.40;99.40;;;;;;5065263;28;20556;-35
2022/06/22 01:31:24;;;;;;;5.18;3.88;;;16.40;99.30;;;;;;5066403;28;20482;-37
2022/06/22 01:33:51;;;;;;;4.35;3.35;;;16.40;99.40;;;;;;5066931;28;20028;-36
2022/06/22 01:36:28;;;;;;;6.97;4.53;;;16.30;99.50;;;;;;5066249;28;20028;-35
2022/06/22 01:38:54;;;;;;;5.10;3.72;;;16.30;99.60;;;;;;5066630;28;20037;-36
2022/06/22 01:41:35;;;;;;;5.10;4.60;;;16.30;99.70;;;;;;5065958;28;20031;-36
2022/06/22 01:44:18;;;;;;;5.25;4.50;;;16.30;99.90;;;;;;5065904;28;20024;-35
2022/06/22 01:46:50;;;;;;;6.43;4.20;;;16.20;99.90;;;;;;5047173;28;20039;-35
2022/06/22 01:49:32;;;;;;;7.87;4.57;;;16.20;99.90;;;;;;5062612;28;20028;-35
2022/06/22 01:52:21;;;;;;;6.63;4.35;;;16.20;99.90;;;;;;5046715;28;20029;-35
2022/06/22 01:54:55;;;;;;;4.93;4.07;;;16.10;99.90;;;;;;5065562;28;20039;-35
2022/06/22 01:57:30;;;;;;;5.95;4.07;;;16.10;99.90;;;;;;5065984;28;20124;-35
2022/06/22 02:00:12;;;;;;;4.70;3.70;;;16.10;99.90;;;;;;5066076;28;20129;-35
2022/06/22 02:02:46;;;;;;;6.50;3.80;;;16.10;99.90;;;;;;5066090;28;20048;-35
2022/06/22 02:05:31;;;;;;;4.25;3.58;;;16.00;99.90;;;;;;5065160;28;20111;-34
2022/06/22 02:08:10;;;;;;;6.38;4.60;;;16.00;99.90;;;;;;5065106;28;20025;-34
2022/06/22 02:10:51;;;;;;;6.88;4.70;;;16.00;99.90;;;;;;5063840;28;20135;-34
2022/06/22 02:13:34;;;;;;;7.47;5.43;;;15.90;99.90;;;;;;5064887;28;20097;-35
2022/06/22 02:16:23;;;;;;;6.28;4.43;;;15.90;99.90;;;;;;5063738;28;20044;-35
2022/06/22 02:19:07;;;;;;;5.78;4.68;;;15.90;99.90;;;;;;5064806;28;20028;-35
2022/06/22 02:21:49;;;;;;;6.50;5.18;;;15.80;99.90;;;;;;5055211;28;20393;-36
2022/06/22 02:24:29;;;;;;;7.38;5.05;;;15.80;99.90;;;;;;5065575;28;20031;-35
2022/06/22 02:26:57;;;;;;;6.68;4.72;;;15.80;99.90;;;;;;5065050;28;20110;-35
2022/06/22 02:29:30;;;;;;;6.82;5.47;;;15.70;99.90;;;;;;5065149;28;20419;-35
2022/06/22 02:32:00;;;;;;;6.63;5.00;;;15.70;99.90;;;;;;5065053;28;20375;-34
2022/06/22 02:34:26;;;;;;;8.18;5.30;;;15.60;99.90;;;;;;5064993;28;20024;-35
2022/06/22 02:36:53;;;;;;;7.55;5.70;;;15.60;99.90;;;;;;5066098;28;20016;-35
2022/06/22 02:39:22;;;;;;;6.55;5.85;;;15.60;99.90;;;;;;5064506;28;20044;-37
2022/06/22 02:44:37;;;;;;;7.70;5.65;;;15.60;99.90;;;;;;5065566;28;20036;-37
2022/06/22 02:47:22;;;;;;;13.32;7.22;;;15.60;99.90;;;;;;5065330;28;20027;-34
2022/06/22 02:50:10;;;;;;;7.55;5.93;;;15.60;99.90;;;;;;5064683;28;20475;-34
2022/06/22 02:52:43;;;;;;;9.15;6.03;;;15.50;99.90;;;;;;5055134;28;20140;-34
2022/06/22 02:55:16;;;;;;;7.28;5.70;;;15.50;99.90;;;;;;5066049;28;20097;-35
2022/06/22 02:57:53;;;;;;;;;;;15.50;99.90;;;;;;5055944;28;20150;-35
2022/06/22 03:00:33;;;;;;;5.38;4.28;;;15.50;99.90;;;;;;5064404;28;19917;-35
2022/06/22 03:03:06;;;;;;;5.85;4.60;;;15.50;99.90;;;;;;5056064;28;20044;-35
2022/06/22 03:05:33;;;;;;;5.30;4.53;;;15.50;99.90;;;;;;5065486;28;20373;-34
2022/06/22 03:08:00;;;;;;;9.55;6.00;;;15.40;99.90;;;;;;5064990;28;20386;-35
2022/06/22 03:10:30;;;;;;;7.10;5.35;;;15.40;99.90;;;;;;5065438;28;20034;-35
2022/06/22 03:12:58;;;;;;;4.55;4.05;;;15.40;99.90;;;;;;5066570;28;20024;-35
2022/06/22 03:15:29;;;;;;;6.28;5.25;;;15.40;99.90;;;;;;5065191;28;20040;-34
2022/06/22 03:17:56;;;;;;;7.15;6.25;;;15.40;99.90;;;;;;5065586;28;20024;-36
2022/06/22 03:20:26;;;;;;;6.45;5.43;;;15.30;99.90;;;;;;5068621;28;20095;-35
2022/06/22 03:23:16;;;;;;;8.10;6.07;;;15.30;99.90;;;;;;5068340;28;20033;-35
2022/06/22 03:25:49;;;;;;;7.05;6.32;;;15.20;99.90;;;;;;5059568;28;20044;-34
2022/06/22 03:28:18;;;;;;;;;;;15.20;99.90;;;;;;5065375;28;20020;-36
2022/06/22 03:30:57;;;;;;;6.97;5.80;;;15.20;99.90;;;;;;5069215;28;19908;-36
2022/06/22 03:33:37;;;;;;;7.72;6.07;;;15.20;99.90;;;;;;5065699;28;20078;-35
2022/06/22 03:36:10;;;;;;;9.05;5.97;;;15.20;99.90;;;;;;5068787;28;20376;-36
2022/06/22 03:38:43;;;;;;;7.95;5.68;;;15.20;99.90;;;;;;5065460;28;20211;-36
2022/06/22 03:41:14;;;;;;;8.90;5.93;;;15.20;99.90;;;;;;5069776;28;20059;-36
2022/06/22 03:43:51;;;;;;;7.55;6.20;;;15.20;99.90;;;;;;5067998;28;20449;-35
2022/06/22 03:46:31;;;;;;;7.40;6.00;;;15.20;99.90;;;;;;5069324;28;20024;-34
2022/06/22 03:49:15;;;;;;;6.60;5.95;;;15.30;99.90;;;;;;5066221;28;20024;-35
2022/06/22 03:51:55;;;;;;;7.43;6.13;;;15.30;99.90;;;;;;5068458;28;20810;-35
2022/06/22 03:54:28;;;;;;;7.38;5.15;;;15.30;99.90;;;;;;5068690;28;20571;-35
2022/06/22 03:56:59;;;;;;;10.50;6.65;;;15.30;99.90;;;;;;5068226;28;20040;-37
2022/06/22 03:59:26;;;;;;;6.45;5.80;;;15.20;99.90;;;;;;5067922;28;20096;-35
2022/06/22 04:01:55;;;;;;;7.40;5.90;;;15.30;99.90;;;;;;5068931;28;20050;-36
2022/06/22 04:04:23;;;;;;;7.72;6.57;;;15.30;99.90;;;;;;5067440;28;20031;-35
2022/06/22 04:06:52;;;;;;;7.72;6.60;;;15.20;99.90;;;;;;5069086;28;20025;-35
2022/06/22 04:09:20;;;;;;;8.75;7.03;;;15.20;99.90;;;;;;5068079;28;20078;-36
2022/06/22 04:12:12;;;;;;;7.05;6.35;;;15.30;99.90;;;;;;5067399;28;20058;-35
2022/06/22 04:15:23;;;;;;;8.85;5.88;;;15.20;99.90;;;;;;5067574;28;20032;-34
2022/06/22 04:17:54;;;;;;;9.70;6.75;;;15.20;99.90;;;;;;5061584;28;20029;-36
2022/06/22 04:20:24;;;;;;;7.55;5.40;;;15.20;99.90;;;;;;5068342;28;20532;-35
2022/06/22 04:22:55;;;;;;;7.75;6.00;;;15.20;99.90;;;;;;5068428;28;20021;-35
2022/06/22 04:25:32;;;;;;;6.25;5.18;;;15.10;99.90;;;;;;5066493;28;20036;-34
2022/06/22 04:28:03;;;;;;;7.30;6.13;;;15.10;99.90;;;;;;5065962;28;20032;-35
2022/06/22 04:30:32;;;;;;;7.65;6.43;;;15.10;99.90;;;;;;5066543;28;20017;-35
2022/06/22 04:33:10;;;;;;;8.95;6.22;;;15.10;99.90;;;;;;5066901;28;20115;-35
2022/06/22 04:35:46;;;;;;;6.85;5.40;;;15.10;99.90;;;;;;5065143;28;20082;-34
2022/06/22 04:38:27;;;;;;;8.75;6.55;;;15.20;99.90;;;;;;5067906;28;20028;-35
2022/06/22 04:40:59;;;;;;;7.97;5.85;;;15.20;99.90;;;;;;5067808;28;20043;-36
2022/06/22 04:43:25;;;;;;;6.65;5.88;;;15.20;99.90;;;;;;5067216;28;20025;-33
2022/06/22 04:45:52;;;;;;;7.13;5.65;;;15.20;99.90;;;;;;5067523;28;20082;-36
2022/06/22 04:48:26;;;;;;;6.80;5.40;;;15.30;99.90;;;;;;5067255;28;20028;-35
2022/06/22 04:51:00;;;;;;;6.80;5.35;;;15.30;99.90;;;;;;5067068;28;20361;-35
2022/06/22 04:53:36;;;;;;;7.05;5.57;;;15.40;99.90;;;;;;5066429;28;20024;-35
2022/06/22 04:56:06;;;;;;;4.93;4.53;;;15.40;99.90;;;;;;5067075;28;20020;-34
2022/06/22 04:58:51;;;;;;;9.00;6.30;;;15.40;99.90;;;;;;5067257;28;20048;-35
2022/06/22 05:01:24;;;;;;;8.30;5.32;;;15.40;99.90;;;;;;5066888;28;20024;-35
2022/06/22 05:03:55;;;;;;;7.90;5.80;;;15.40;99.90;;;;;;5067669;28;20561;-35
2022/06/22 05:06:27;;;;;;;6.13;5.35;;;15.50;99.90;;;;;;5065754;28;20361;-34
2022/06/22 05:09:05;;;;;;;;;;;15.50;99.90;;;;;;5067879;28;20071;-34
2022/06/22 05:11:41;;;;;;;7.95;5.22;;;15.50;99.90;;;;;;5066191;28;20348;-34
2022/06/22 05:14:18;;;;;;;6.60;5.22;;;15.50;99.90;;;;;;5067038;28;20076;-34
2022/06/22 05:16:51;;;;;;;5.72;4.72;;;15.50;99.90;;;;;;5066225;28;20429;-36
2022/06/22 05:19:17;;;;;;;6.35;5.35;;;15.50;99.90;;;;;;5067545;28;20041;-35
2022/06/22 05:21:45;;;;;;;5.20;4.70;;;15.60;99.90;;;;;;5066544;28;20016;-36
2022/06/22 05:24:34;;;;;;;4.85;4.35;;;15.60;99.90;;;;;;5067421;28;20099;-35
2022/06/22 05:27:05;;;;;;;7.30;5.20;;;15.60;99.90;;;;;;5067295;28;20555;-35
2022/06/22 05:29:38;;;;;;;5.57;5.03;;;15.70;99.90;;;;;;5046405;28;20021;-35
2022/06/22 05:32:10;;;;;;;6.40;4.65;;;15.70;99.90;;;;;;5066869;28;20036;-35
2022/06/22 05:34:39;;;;;;;6.57;4.70;;;15.80;99.90;;;;;;5064884;28;20296;-34
2022/06/22 05:37:24;;;;;;;5.38;4.88;;;15.80;99.90;;;;;;5065528;28;20630;-35
2022/06/22 05:39:51;;;;;;;4.38;4.03;;;15.90;99.90;;;;;;5064155;28;20454;-35
2022/06/22 05:42:16;;;;;;;6.40;4.88;;;15.90;99.90;;;;;;5071620;28;20420;-35
2022/06/22 05:44:42;;;;;;;5.63;4.30;;;16.00;99.90;;;;;;5063630;28;20036;-35
2022/06/22 05:47:15;;;;;;;6.32;4.60;;;16.00;99.90;;;;;;5065366;28;20063;-36
2022/06/22 05:49:52;;;;;;;6.20;3.80;;;16.10;99.90;;;;;;5065501;28;20817;-35
2022/06/22 05:52:31;;;;;;;6.03;4.40;;;16.10;99.90;;;;;;5065412;28;20035;-37
2022/06/22 05:55:10;;;;;;;5.88;4.30;;;16.20;99.90;;;;;;5045782;28;20033;-35
2022/06/22 05:57:52;;;;;;;4.47;3.90;;;16.20;99.90;;;;;;5060252;28;20028;-35
2022/06/22 06:00:26;;;;;;;4.38;3.97;;;16.20;99.90;;;;;;5065283;28;20391;-35
2022/06/22 06:03:18;;;;;;;4.47;3.97;;;16.30;99.90;;;;;;5065139;28;20025;-36
2022/06/22 06:05:50;;;;;;;4.28;3.30;;;16.30;99.90;;;;;;5065287;28;20359;-35
2022/06/22 06:08:35;;;;;;;6.45;4.07;;;16.40;99.90;;;;;;5064616;28;20028;-39
2022/06/22 06:11:01;;;;;;;4.60;3.85;;;16.50;99.90;;;;;;5064910;28;20472;-36
2022/06/22 06:13:36;;;;;;;5.40;3.55;;;16.50;99.90;;;;;;5065310;28;20186;-35
2022/06/22 06:16:05;;;;;;;3.90;3.50;;;16.60;99.90;;;;;;5065071;28;20032;-37
2022/06/22 06:18:38;;;;;;;6.10;3.78;;;16.60;99.90;;;;;;5063824;28;20021;-36
2022/06/22 06:21:09;;;;;;;5.72;3.15;;;16.70;99.90;;;;;;5065046;28;20096;-36
2022/06/22 06:23:40;;;;;;;5.30;3.20;;;16.70;99.90;;;;;;5065011;28;20028;-34
2022/06/22 06:29:36;;;;;;;4.13;3.60;;;16.80;99.90;;;;;;5059277;28;20047;-36
2022/06/22 06:32:25;;;;;;;4.55;3.40;;;16.90;99.90;;;;;;5065628;28;20024;-36
2022/06/22 06:35:11;;;;;;;3.17;2.88;;;16.90;99.90;;;;;;5065843;28;20028;-35
2022/06/22 06:37:57;;;;;;;4.88;3.33;;;17.00;99.90;;;;;;5064473;28;20027;-35
2022/06/22 06:40:46;;;;;;;4.75;3.53;;;17.10;99.90;;;;;;5065953;28;20036;-35
2022/06/22 06:43:31;;;;;;;4.28;3.88;;;17.20;99.90;;;;;;5064492;28;20108;-35
2022/06/22 06:45:59;;;;;;;3.75;3.35;;;17.20;99.90;;;;;;5063822;28;20066;-36
2022/06/22 06:48:26;;;;;;;5.15;3.50;;;17.30;99.90;;;;;;5063884;28;20036;-36
2022/06/22 06:50:56;;;;;;;4.30;2.90;;;17.30;99.90;;;;;;5064761;28;20023;-35
2022/06/22 06:53:31;;;;;;;3.35;3.05;;;17.40;99.90;;;;;;5063546;28;20024;-35
2022/06/22 06:56:21;;;;;;;4.38;3.33;;;17.40;99.90;;;;;;5064877;28;20107;-36
2022/06/22 06:58:51;;;;;;;5.82;2.50;;;17.50;99.90;;;;;;5064771;28;20095;-35
2022/06/22 07:01:22;;;;;;;3.67;2.80;;;17.50;99.90;;;;;;5065395;28;20051;-35
2022/06/22 07:03:51;;;;;;;2.47;2.17;;;17.50;99.90;;;;;;5064831;28;20403;-35
2022/06/22 07:06:17;;;;;;;4.78;2.90;;;17.60;99.90;;;;;;5063982;28;20085;-36
2022/06/22 07:08:52;;;;;;;3.65;3.00;;;17.60;99.90;;;;;;5065164;28;20121;-35
2022/06/22 07:11:32;;;;;;;3.83;2.55;;;17.70;99.90;;;;;;5065391;28;20414;-36
2022/06/22 07:14:23;;;;;;;3.47;2.47;;;17.80;99.90;;;;;;5064830;28;20413;-35
2022/06/22 07:16:53;;;;;;;2.40;1.77;;;17.90;99.90;;;;;;5058587;28;20480;-36
2022/06/22 07:19:21;;;;;;;3.03;2.40;;;17.90;99.90;;;;;;5064663;28;20115;-36
2022/06/22 07:22:01;;;;;;;3.15;2.28;;;18.00;99.90;;;;;;5064163;28;20090;-36
2022/06/22 07:24:33;;;;;;;2.47;1.90;;;18.00;99.90;;;;;;5064390;28;20048;-37
2022/06/22 07:27:16;;;;;;;2.35;2.15;;;18.10;99.90;;;;;;5065121;28;20085;-36
2022/06/22 07:30:03;;;;;;;4.25;2.08;;;18.10;99.80;;;;;;5063817;28;20025;-36
2022/06/22 07:32:37;;;;;;;2.25;1.75;;;18.20;99.70;;;;;;5065194;28;20028;-36
2022/06/22 07:35:15;;;;;;;2.15;1.90;;;18.20;99.50;;;;;;5064335;28;20025;-36
2022/06/22 07:38:03;;;;;;;2.55;1.70;;;18.20;99.30;;;;;;5062734;28;20021;-35
2022/06/22 07:40:30;;;;;;;4.40;1.77;;;18.30;99.20;;;;;;5063336;28;20055;-36
2022/06/22 07:42:58;;;;;;;2.47;1.45;;;18.40;99.10;;;;;;5064994;28;20471;-35
2022/06/22 07:45:26;;;;;;;3.05;1.90;;;18.50;99.00;;;;;;5064486;28;20021;-36
2022/06/22 07:48:05;;;;;;;4.35;1.98;;;18.50;98.60;;;;;;5065108;28;20033;-35
2022/06/22 07:50:35;;;;;;;1.73;1.58;;;18.60;98.20;;;;;;5063299;28;20031;-36
2022/06/22 07:53:29;;;;;;;3.63;2.17;;;18.70;98.00;;;;;;5065320;28;20097;-34
2022/06/22 07:56:19;;;;;;;2.60;1.58;;;18.80;97.40;;;;;;5061364;28;20017;-35
2022/06/22 07:59:13;;;;;;;4.75;1.60;;;18.90;97.20;;;;;;5031894;28;20148;-35
2022/06/22 08:01:41;;;;;;;2.65;1.60;;;18.90;97.10;;;;;;5064460;28;20064;-36
2022/06/22 08:04:27;;;;;;;2.47;1.70;;;19.00;96.60;;;;;;5067685;28;20119;-35
2022/06/22 08:07:15;;;;;;;2.78;1.70;;;19.00;96.40;;;;;;5068103;28;20025;-37
2022/06/22 08:09:46;;;;;;;4.70;1.63;;;19.10;96.10;;;;;;5065968;28;20127;-35
2022/06/22 08:12:37;;;;;;;3.80;1.50;;;19.10;96.10;;;;;;5068265;28;20024;-34
2022/06/22 08:15:08;;;;;;;1.98;1.70;;;19.20;96.00;;;;;;5067142;28;20021;-35
2022/06/22 08:17:55;;;;;;;3.37;1.80;;;19.30;95.80;;;;;;5066720;28;20035;-36
2022/06/22 08:20:30;;;;;;;2.25;1.38;;;19.30;95.60;;;;;;5067594;28;20072;-36
2022/06/22 08:22:59;;;;;;;1.75;1.38;;;19.40;95.70;;;;;;5067808;28;20052;-36
2022/06/22 08:25:24;;;;;;;2.00;1.20;;;19.40;95.60;;;;;;5066623;28;20070;-35
2022/06/22 08:27:52;;;;;;;2.97;1.38;;;19.40;95.40;;;;;;5068654;28;20397;-34
2022/06/22 08:30:19;;;;;;;1.98;1.50;;;19.50;95.30;;;;;;5066446;28;20025;-35
2022/06/22 08:32:48;;;;;;;2.53;1.30;;;19.60;95.10;;;;;;5067435;28;20503;-35
2022/06/22 08:35:22;;;;;;;2.22;1.30;;;19.60;94.90;;;;;;5047957;28;20029;-34
2022/06/22 08:38:02;;;;;;;3.53;1.20;;;19.60;94.80;;;;;;5062316;28;20095;-35
2022/06/22 08:40:38;;;;;;;1.48;1.05;;;19.70;94.80;;;;;;5047286;28;20491;-35
2022/06/22 08:43:29;;;;;;;2.97;1.67;;;19.70;94.60;;;;;;5064296;28;20024;-34
2022/06/22 08:46:12;;;;;;;2.22;1.83;;;19.60;94.30;;;;;;5059055;28;20115;-38
2022/06/22 08:48:59;;;;;;;2.67;1.40;;;19.70;94.00;;;;;;5067778;28;20032;-36
2022/06/22 08:51:43;;;;;;;1.50;1.20;;;19.70;94.00;;;;;;5067399;28;20038;-34
2022/06/22 08:54:46;;;;;;;2.72;1.20;;;19.80;93.80;;;;;;5064790;28;20476;-34
2022/06/22 08:57:40;;;;;;;2.50;1.05;;;19.80;93.70;;;;;;5067692;28;20039;-36
2022/06/22 09:00:18;;;;;;;2.67;1.30;;;19.90;93.70;;;;;;5059349;28;20086;-36
2022/06/22 09:03:03;;;;;;;2.50;1.20;;;19.90;93.50;;;;;;5066901;28;20413;-35
2022/06/22 09:06:00;;;;;;;1.73;1.35;;;20.00;93.30;;;;;;5063788;28;20036;-35
2022/06/22 09:08:56;;;;;;;1.80;1.08;;;20.00;93.20;;;;;;5065620;28;20024;-36
2022/06/22 09:11:27;;;;;;;1.65;0.90;;;20.10;93.10;;;;;;5065516;28;20017;-36
2022/06/22 09:14:27;;;;;;;2.05;1.05;;;20.10;92.70;;;;;;5065603;28;20034;-36
2022/06/22 09:17:21;;;;;;;1.70;1.00;;;20.10;92.50;;;;;;5048011;28;20436;-37
2022/06/22 09:19:59;;;;;;;1.52;1.00;;;20.20;92.40;;;;;;5066062;28;20082;-35
2022/06/22 09:22:55;;;;;;;3.10;1.40;;;20.20;92.40;;;;;;5066817;28;20028;-35
2022/06/22 09:25:26;;;;;;;1.40;1.00;;;20.20;91.90;;;;;;5065563;28;20032;-36
2022/06/22 09:28:01;;;;;;;2.90;0.98;;;20.20;91.60;;;;;;5066590;28;20074;-36
2022/06/22 09:31:10;;;;;;;1.15;0.82;;;20.30;91.20;;;;;;5066739;28;20024;-36
2022/06/22 09:34:21;;;;;;;1.73;1.13;;;20.40;91.00;;;;;;5065132;28;20439;-36
2022/06/22 09:37:13;;;;;;;1.27;1.13;;;20.40;90.60;;;;;;5004444;28;20163;-36
2022/06/22 09:40:03;;;;;;;1.17;1.08;;;20.50;90.30;;;;;;5060912;28;20501;-37
2022/06/22 09:42:46;;;;;;;1.80;1.10;;;20.60;90.10;;;;;;5046389;28;20033;-35
2022/06/22 09:45:24;;;;;;;1.52;1.00;;;20.60;90.10;;;;;;5062894;28;20025;-35
2022/06/22 09:48:03;;;;;;;2.50;1.00;;;20.70;90.00;;;;;;5065927;28;20032;-34
2022/06/22 09:50:46;;;;;;;1.52;1.02;;;20.70;89.90;;;;;;5066404;28;20056;-36
2022/06/22 09:53:18;;;;;;;2.75;1.00;;;20.80;89.20;;;;;;5067234;28;20036;-35
2022/06/22 09:59:06;;;;;;;2.08;0.90;;;20.90;88.10;;;;;;5065672;28;19927;-35
2022/06/22 10:01:51;;;;;;;3.53;1.15;;;20.90;85.90;;;;;;5063571;28;20507;-36
2022/06/22 10:04:25;;;;;;;1.05;0.80;;;20.90;85.20;;;;;;5066293;28;20032;-35
2022/06/22 10:07:14;;;;;;;2.05;1.10;;;21.00;84.30;;;;;;5064079;28;20036;-35
2022/06/22 10:10:00;;;;;;;1.70;0.80;;;21.10;84.30;;;;;;5064923;28;20028;-36
2022/06/22 10:12:49;;;;;;;1.23;0.93;;;21.10;84.80;;;;;;5057407;28;20456;-35
2022/06/22 10:16:09;;;;;;;1.25;0.82;;;21.20;84.70;;;;;;5064767;28;20209;-35
2022/06/22 10:18:58;;;;;;;2.15;1.30;;;21.20;84.40;;;;;;4983641;28;20209;-35
2022/06/22 10:21:41;;;;;;;2.63;0.88;;;21.20;83.80;;;;;;5057416;28;20376;-34
2022/06/22 10:24:35;;;;;;;2.05;0.90;;;21.30;83.20;;;;;;5044798;28;20081;-35
2022/06/22 10:27:19;;;;;;;1.58;0.80;;;21.30;83.10;;;;;;5066005;28;20476;-36
2022/06/22 10:29:52;;;;;;;1.85;0.70;;;21.30;83.00;;;;;;5065404;28;20492;-37
2022/06/22 10:32:38;;;;;;;;;;;21.40;83.00;;;;;;5065328;28;20540;-36
2022/06/22 10:35:22;;;;;;;2.97;0.95;;;21.40;82.50;;;;;;5065524;28;19911;-36
2022/06/22 10:38:25;;;;;;;0.80;0.70;;;21.50;82.10;;;;;;5063170;28;20020;-35
2022/06/22 10:46:58;;;;;;;1.70;1.08;;;21.50;80.70;;;;;;5065193;28;20066;-35
2022/06/22 10:50:01;;;;;;;1.40;0.80;;;21.60;80.00;;;;;;5065776;28;20472;-35
2022/06/22 10:53:00;;;;;;;1.00;0.90;;;21.80;80.30;;;;;;5061853;28;20036;-35
2022/06/22 10:55:31;;;;;;;0.80;0.80;;;21.80;79.70;;;;;;5064371;28;20040;-36
2022/06/22 10:58:24;;;;;;;1.23;0.85;;;21.90;79.40;;;;;;5064646;28;20037;-36
2022/06/22 11:01:33;;;;;;;2.38;1.00;;;21.90;79.20;;;;;;5065699;28;20044;-37
2022/06/22 11:04:17;;;;;;;1.52;1.00;;;22.00;78.20;;;;;;5004849;28;20482;-36
2022/06/22 11:07:06;;;;;;;0.95;0.80;;;22.00;77.80;;;;;;5064733;28;20073;-36
2022/06/22 11:09:54;;;;;;;3.35;1.50;;;22.00;77.40;;;;;;5065230;28;20436;-36
2022/06/22 11:12:38;;;;;;;2.15;0.95;;;22.10;77.20;;;;;;5064402;28;20369;-35
2022/06/22 11:15:16;;;;;;;0.85;0.80;;;22.20;77.70;;;;;;5068234;28;20420;-36
2022/06/22 11:18:06;;;;;;;0.60;0.60;;;22.20;77.70;;;;;;5073396;28;20537;-35
2022/06/22 11:20:45;;;;;;;0.80;0.80;;;22.20;77.80;;;;;;5064264;28;20086;-36
2022/06/22 11:23:15;;;;;;;1.48;1.05;;;22.30;77.50;;;;;;5064645;28;20061;-34
2022/06/22 11:32:09;;;;;;;4.30;1.48;;;22.40;75.90;;;;;;5064980;28;20036;-36
2022/06/22 11:34:40;;;;;;;1.08;0.95;;;22.50;75.90;;;;;;5064225;28;20036;-36
2022/06/22 11:37:43;;;;;;;1.33;0.80;;;22.50;76.30;;;;;;5067125;28;20040;-35
2022/06/22 11:40:30;;;;;;;1.10;0.98;;;22.50;76.80;;;;;;5049986;28;20045;-36
2022/06/22 11:43:17;;;;;;;4.40;1.45;;;22.50;75.60;;;;;;5069140;28;20853;-37
2022/06/22 11:46:10;;;;;;;2.72;1.15;;;22.60;75.00;;;;;;5068502;28;20036;-35
2022/06/22 11:49:03;;;;;;;2.78;1.25;;;22.60;75.10;;;;;;5038582;28;20055;-36
2022/06/22 11:52:05;;;;;;;1.35;0.80;;;22.60;74.50;;;;;;5068208;28;20120;-35
2022/06/22 11:54:39;;;;;;;1.63;1.10;;;22.70;74.90;;;;;;5067122;28;20035;-35
2022/06/22 11:57:38;;;;;;;2.30;1.15;;;22.70;73.80;;;;;;5068404;28;20028;-33
2022/06/22 12:00:18;;;;;;;2.13;1.60;;;22.80;73.90;;;;;;5068491;28;20475;-35
2022/06/22 12:03:09;;;;;;;2.42;1.55;;;22.80;73.80;;;;;;5067802;28;20040;-35
2022/06/22 12:05:45;;;;;;;2.13;1.60;;;22.90;73.90;;;;;;5065233;28;20032;-37
2022/06/22 12:08:14;;;;;;;2.22;1.52;;;22.90;73.50;;;;;;5069198;28;20116;-35
2022/06/22 12:11:05;;;;;;;2.08;1.48;;;23.00;73.80;;;;;;5064828;28;20029;-34
2022/06/22 12:16:47;;;;;;;1.85;1.10;;;23.00;74.20;;;;;;5058899;28;20158;-34
2022/06/22 12:19:37;;;;;;;1.33;1.20;;;23.10;74.20;;;;;;5068647;28;20044;-35
2022/06/22 12:22:15;;;;;;;1.20;1.10;;;23.20;74.50;;;;;;5069722;28;20642;-34
2022/06/22 12:25:15;;;;;;;2.10;1.10;;;23.20;74.20;;;;;;5067842;28;20025;-35
2022/06/22 12:27:43;;;;;;;1.38;1.10;;;23.30;74.40;;;;;;5068272;28;20158;-35
2022/06/22 12:30:08;;;;;;;1.77;1.00;;;23.30;74.10;;;;;;5067302;28;20028;-36
2022/06/22 12:32:38;;;;;;;1.58;1.13;;;23.30;74.20;;;;;;5067166;28;20032;-35
2022/06/22 12:35:12;;;;;;;1.50;0.80;;;23.30;74.20;;;;;;5067062;28;20202;-36
2022/06/22 12:37:46;;;;;;;1.50;1.00;;;23.40;74.60;;;;;;5066361;28;20102;-35
2022/06/22 12:40:29;;;;;;;1.73;0.80;;;23.40;74.20;;;;;;5067409;28;20024;-35
2022/06/22 12:43:15;;;;;;;0.85;0.80;;;23.40;73.70;;;;;;5068626;28;20039;-35
2022/06/22 12:45:56;;;;;;;0.82;0.80;;;23.50;74.20;;;;;;5067001;28;20460;-36
2022/06/22 12:48:53;;;;;;;1.55;0.90;;;23.50;73.90;;;;;;5067488;28;20033;-36
2022/06/22 12:51:23;;;;;;;1.25;1.02;;;23.50;73.90;;;;;;5067476;28;20029;-36
2022/06/22 12:54:11;;;;;;;2.28;1.00;;;23.60;73.80;;;;;;5067403;28;20035;-35
2022/06/22 12:56:59;;;;;;;0.80;0.70;;;23.60;73.60;;;;;;5066881;28;20028;-34
2022/06/22 12:59:35;;;;;;;1.00;0.90;;;23.70;73.80;;;;;;5066393;28;20056;-36
2022/06/22 13:02:16;;;;;;;0.93;0.80;;;23.70;74.00;;;;;;5067289;28;20112;-35
2022/06/22 13:04:44;;;;;;;0.85;0.73;;;23.80;73.80;;;;;;5066883;28;20104;-35
2022/06/22 13:07:14;;;;;;;1.45;0.90;;;23.90;73.60;;;;;;5067489;28;20055;-35
2022/06/22 13:09:41;;;;;;;1.40;0.80;;;24.10;72.90;;;;;;5067358;28;20154;-34
2022/06/22 13:12:36;;;;;;;1.33;0.80;;;24.20;73.00;;;;;;5066812;28;20446;-36
2022/06/22 13:15:11;;;;;;;1.40;0.82;;;24.20;72.70;;;;;;5067616;28;20035;-34
2022/06/22 13:17:47;;;;;;;1.88;0.90;;;24.30;72.50;;;;;;5067221;28;20066;-36
2022/06/22 13:20:29;;;;;;;1.08;0.90;;;24.40;72.30;;;;;;5067302;28;20040;-35
2022/06/22 13:23:06;;;;;;;;;;;24.40;72.10;;;;;;5066618;28;20032;-35
2022/06/22 13:25:47;;;;;;;3.28;1.17;;;24.50;72.30;;;;;;5066717;28;20750;-35
2022/06/22 13:28:28;;;;;;;1.63;0.80;;;24.40;72.30;;;;;;5067138;28;20031;-35
2022/06/22 13:31:10;;;;;;;1.17;0.80;;;24.50;72.20;;;;;;5067257;28;20039;-34
2022/06/22 13:33:42;;;;;;;;;;;24.60;72.20;;;;;;5064149;28;20111;-35
2022/06/22 13:36:32;;;;;;;2.25;0.77;;;24.70;72.10;;;;;;5067179;28;19908;-36
2022/06/22 13:39:12;;;;;;;1.55;0.75;;;24.70;72.30;;;;;;5032394;28;20032;-38
2022/06/22 13:41:56;;;;;;;0.82;0.80;;;24.70;71.40;;;;;;5064704;28;20039;-35
2022/06/22 13:44:37;;;;;;;1.08;0.70;;;24.80;71.50;;;;;;5063197;28;20365;-36
2022/06/22 13:47:15;;;;;;;0.85;0.70;;;24.80;71.70;;;;;;5065497;28;20518;-37
2022/06/22 13:49:57;;;;;;;0.85;0.73;;;24.80;72.00;;;;;;5066206;28;20394;-35
2022/06/22 13:52:44;;;;;;;0.90;0.70;;;24.80;71.60;;;;;;5066168;28;20077;-37
2022/06/22 13:55:41;;;;;;;2.33;0.80;;;24.80;71.50;;;;;;5065472;28;20069;-36
2022/06/22 13:58:20;;;;;;;1.55;0.90;;;24.90;71.60;;;;;;5066139;28;20119;-35
2022/06/22 14:01:18;;;;;;;1.30;0.90;;;24.80;71.60;;;;;;5065741;28;20040;-36
2022/06/22 14:03:54;;;;;;;1.98;1.05;;;24.90;72.20;;;;;;5061875;28;20032;-35
2022/06/22 14:06:33;;;;;;;1.95;0.80;;;25.00;71.00;;;;;;5045906;28;20033;-36
2022/06/22 14:09:16;;;;;;;1.02;0.80;;;25.10;70.70;;;;;;5061918;28;20586;-35
2022/06/22 14:11:54;;;;;;;1.02;0.85;;;25.10;70.80;;;;;;5046399;28;20024;-37
2022/06/22 14:14:35;;;;;;;1.00;0.90;;;25.10;70.50;;;;;;5063436;28;20377;-35